sensor_id;sensor_type;location;lat;lon;timestamp;P1;durP1;ratioP1;P2;durP2;ratioP2
47912;SDS011;33676;51.006;17.180;2023-07-13T00:01:16;9.20;;;8.30;;
47912;SDS011;33676;51.006;17.180;2023-07-13T00:03:45;10.00;;;9.00;;
47912;SDS011;33676;51.006;17.180;2023-07-13T00:06:14;7.30;;;6.00;;
47912;SDS011;33676;51.006;17.180;2023-07-13T00:08:44;8.80;;;7.50;;
47912;SDS011;33676;51.006;17.180;2023-07-13T00:11:13;9.30;;;6.80;;
47912;SDS011;33676;51.006;17.180;2023-07-13T00:13:43;6.90;;;6.40;;
47912;SDS011;33676;51.006;17.180;2023-07-13T00:16:12;7.50;;;6.90;;
47912;SDS011;33676;51.006;17.180;2023-07-13T00:18:42;7.70;;;7.00;;
47912;SDS011;33676;51.006;17.180;2023-07-13T00:21:11;7.10;;;6.50;;
47912;SDS011;33676;51.006;17.180;2023-07-13T00:23:41;6.60;;;6.00;;
47912;SDS011;33676;51.006;17.180;2023-07-13T00:26:11;6.90;;;6.30;;
47912;SDS011;33676;51.006;17.180;2023-07-13T00:28:41;7.60;;;6.90;;
47912;SDS011;33676;51.006;17.180;2023-07-13T00:31:11;7.60;;;6.80;;
47912;SDS011;33676;51.006;17.180;2023-07-13T00:33:46;7.10;;;6.50;;
47912;SDS011;33676;51.006;17.180;2023-07-13T00:36:14;8.40;;;6.80;;
47912;SDS011;33676;51.006;17.180;2023-07-13T00:38:43;8.50;;;7.70;;
47912;SDS011;33676;51.006;17.180;2023-07-13T00:41:11;7.70;;;6.10;;
47912;SDS011;33676;51.006;17.180;2023-07-13T00:43:40;6.90;;;6.20;;
47912;SDS011;33676;51.006;17.180;2023-07-13T00:46:26;7.40;;;6.80;;
47912;SDS011;33676;51.006;17.180;2023-07-13T00:48:59;8.80;;;6.90;;
47912;SDS011;33676;51.006;17.180;2023-07-13T00:51:36;9.10;;;7.10;;
47912;SDS011;33676;51.006;17.180;2023-07-13T00:54:11;8.50;;;7.30;;
47912;SDS011;33676;51.006;17.180;2023-07-13T00:56:44;10.20;;;8.00;;
47912;SDS011;33676;51.006;17.180;2023-07-13T00:59:17;8.30;;;7.50;;
47912;SDS011;33676;51.006;17.180;2023-07-13T01:01:48;8.40;;;6.80;;
47912;SDS011;33676;51.006;17.180;2023-07-13T01:04:17;11.80;;;7.20;;
47912;SDS011;33676;51.006;17.180;2023-07-13T01:06:46;10.70;;;7.90;;
47912;SDS011;33676;51.006;17.180;2023-07-13T01:09:16;7.50;;;6.80;;
47912;SDS011;33676;51.006;17.180;2023-07-13T01:11:44;8.10;;;7.50;;
47912;SDS011;33676;51.006;17.180;2023-07-13T01:14:13;9.70;;;7.50;;
47912;SDS011;33676;51.006;17.180;2023-07-13T01:16:45;10.90;;;8.10;;
47912;SDS011;33676;51.006;17.180;2023-07-13T01:19:35;11.10;;;8.10;;
47912;SDS011;33676;51.006;17.180;2023-07-13T01:22:12;8.00;;;7.30;;
47912;SDS011;33676;51.006;17.180;2023-07-13T01:24:44;16.20;;;14.50;;
47912;SDS011;33676;51.006;17.180;2023-07-13T01:27:16;25.20;;;23.00;;
47912;SDS011;33676;51.006;17.180;2023-07-13T01:29:48;14.40;;;12.20;;
47912;SDS011;33676;51.006;17.180;2023-07-13T01:32:23;14.90;;;13.20;;
47912;SDS011;33676;51.006;17.180;2023-07-13T01:34:53;15.10;;;11.70;;
47912;SDS011;33676;51.006;17.180;2023-07-13T01:37:26;15.10;;;12.60;;
47912;SDS011;33676;51.006;17.180;2023-07-13T01:39:55;18.50;;;13.10;;
47912;SDS011;33676;51.006;17.180;2023-07-13T01:42:23;9.30;;;8.30;;
47912;SDS011;33676;51.006;17.180;2023-07-13T01:44:52;10.50;;;8.50;;
47912;SDS011;33676;51.006;17.180;2023-07-13T01:47:20;8.80;;;7.00;;
47912;SDS011;33676;51.006;17.180;2023-07-13T01:49:50;13.20;;;7.90;;
47912;SDS011;33676;51.006;17.180;2023-07-13T01:52:20;8.40;;;7.50;;
47912;SDS011;33676;51.006;17.180;2023-07-13T01:54:48;9.00;;;8.10;;
47912;SDS011;33676;51.006;17.180;2023-07-13T01:57:17;11.80;;;7.70;;
47912;SDS011;33676;51.006;17.180;2023-07-13T01:59:45;11.20;;;10.20;;
47912;SDS011;33676;51.006;17.180;2023-07-13T02:02:56;11.30;;;9.00;;
47912;SDS011;33676;51.006;17.180;2023-07-13T02:05:24;12.00;;;8.10;;
47912;SDS011;33676;51.006;17.180;2023-07-13T02:07:53;9.80;;;8.90;;
47912;SDS011;33676;51.006;17.180;2023-07-13T02:10:23;13.30;;;7.80;;
47912;SDS011;33676;51.006;17.180;2023-07-13T02:12:52;12.90;;;8.30;;
47912;SDS011;33676;51.006;17.180;2023-07-13T02:15:22;10.90;;;8.20;;
47912;SDS011;33676;51.006;17.180;2023-07-13T02:17:50;9.60;;;7.20;;
47912;SDS011;33676;51.006;17.180;2023-07-13T02:20:19;11.50;;;8.00;;
47912;SDS011;33676;51.006;17.180;2023-07-13T02:22:47;11.20;;;7.90;;
47912;SDS011;33676;51.006;17.180;2023-07-13T02:25:16;11.30;;;7.70;;
47912;SDS011;33676;51.006;17.180;2023-07-13T02:27:45;9.10;;;8.20;;
47912;SDS011;33676;51.006;17.180;2023-07-13T02:30:13;9.50;;;7.60;;
47912;SDS011;33676;51.006;17.180;2023-07-13T02:32:42;7.50;;;6.50;;
47912;SDS011;33676;51.006;17.180;2023-07-13T02:35:12;10.00;;;7.40;;
47912;SDS011;33676;51.006;17.180;2023-07-13T02:37:41;13.10;;;8.10;;
47912;SDS011;33676;51.006;17.180;2023-07-13T02:40:09;9.80;;;6.60;;
47912;SDS011;33676;51.006;17.180;2023-07-13T02:42:39;6.70;;;6.10;;
47912;SDS011;33676;51.006;17.180;2023-07-13T02:45:08;8.80;;;7.20;;
47912;SDS011;33676;51.006;17.180;2023-07-13T02:47:37;11.00;;;7.40;;
47912;SDS011;33676;51.006;17.180;2023-07-13T02:50:06;14.00;;;8.00;;
47912;SDS011;33676;51.006;17.180;2023-07-13T02:52:36;10.10;;;6.80;;
47912;SDS011;33676;51.006;17.180;2023-07-13T02:55:04;7.60;;;6.60;;
47912;SDS011;33676;51.006;17.180;2023-07-13T02:57:33;12.90;;;6.80;;
47912;SDS011;33676;51.006;17.180;2023-07-13T03:00:03;7.70;;;7.00;;
47912;SDS011;33676;51.006;17.180;2023-07-13T03:02:35;6.30;;;5.80;;
47912;SDS011;33676;51.006;17.180;2023-07-13T03:05:04;8.00;;;7.20;;
47912;SDS011;33676;51.006;17.180;2023-07-13T03:07:33;8.50;;;6.50;;
47912;SDS011;33676;51.006;17.180;2023-07-13T03:10:01;8.40;;;6.60;;
47912;SDS011;33676;51.006;17.180;2023-07-13T03:12:30;6.20;;;5.60;;
47912;SDS011;33676;51.006;17.180;2023-07-13T03:14:58;6.90;;;6.00;;
47912;SDS011;33676;51.006;17.180;2023-07-13T03:17:27;5.40;;;4.90;;
47912;SDS011;33676;51.006;17.180;2023-07-13T03:19:55;6.70;;;5.60;;
47912;SDS011;33676;51.006;17.180;2023-07-13T03:22:25;7.40;;;6.00;;
47912;SDS011;33676;51.006;17.180;2023-07-13T03:24:55;6.40;;;5.40;;
47912;SDS011;33676;51.006;17.180;2023-07-13T03:27:23;8.30;;;6.20;;
47912;SDS011;33676;51.006;17.180;2023-07-13T03:29:52;9.60;;;6.80;;
47912;SDS011;33676;51.006;17.180;2023-07-13T03:32:20;9.00;;;6.10;;
47912;SDS011;33676;51.006;17.180;2023-07-13T03:34:49;6.10;;;5.50;;
47912;SDS011;33676;51.006;17.180;2023-07-13T03:37:17;11.50;;;5.40;;
47912;SDS011;33676;51.006;17.180;2023-07-13T03:39:46;6.90;;;5.90;;
47912;SDS011;33676;51.006;17.180;2023-07-13T03:42:15;10.30;;;6.10;;
47912;SDS011;33676;51.006;17.180;2023-07-13T03:44:43;8.70;;;7.00;;
47912;SDS011;33676;51.006;17.180;2023-07-13T03:47:18;7.30;;;6.50;;
47912;SDS011;33676;51.006;17.180;2023-07-13T03:49:47;7.30;;;6.60;;
47912;SDS011;33676;51.006;17.180;2023-07-13T03:52:15;7.00;;;5.50;;
47912;SDS011;33676;51.006;17.180;2023-07-13T03:54:44;6.60;;;6.10;;
47912;SDS011;33676;51.006;17.180;2023-07-13T03:57:12;6.30;;;5.70;;
47912;SDS011;33676;51.006;17.180;2023-07-13T03:59:41;8.80;;;7.20;;
47912;SDS011;33676;51.006;17.180;2023-07-13T04:02:09;6.80;;;5.40;;
47912;SDS011;33676;51.006;17.180;2023-07-13T04:04:38;7.70;;;7.00;;
47912;SDS011;33676;51.006;17.180;2023-07-13T04:07:09;7.50;;;6.40;;
47912;SDS011;33676;51.006;17.180;2023-07-13T04:09:37;7.90;;;6.90;;
47912;SDS011;33676;51.006;17.180;2023-07-13T04:12:07;7.40;;;6.00;;
47912;SDS011;33676;51.006;17.180;2023-07-13T04:14:36;6.70;;;5.50;;
47912;SDS011;33676;51.006;17.180;2023-07-13T04:17:05;6.80;;;5.40;;
47912;SDS011;33676;51.006;17.180;2023-07-13T04:19:34;8.40;;;5.60;;
47912;SDS011;33676;51.006;17.180;2023-07-13T04:22:02;6.30;;;5.70;;
47912;SDS011;33676;51.006;17.180;2023-07-13T04:24:31;9.50;;;6.00;;
47912;SDS011;33676;51.006;17.180;2023-07-13T04:27:00;10.10;;;6.10;;
47912;SDS011;33676;51.006;17.180;2023-07-13T04:29:29;7.70;;;6.90;;
47912;SDS011;33676;51.006;17.180;2023-07-13T04:31:58;9.90;;;6.80;;
47912;SDS011;33676;51.006;17.180;2023-07-13T04:34:26;7.30;;;6.40;;
47912;SDS011;33676;51.006;17.180;2023-07-13T04:36:55;9.10;;;7.60;;
47912;SDS011;33676;51.006;17.180;2023-07-13T04:39:23;10.70;;;7.40;;
47912;SDS011;33676;51.006;17.180;2023-07-13T04:41:52;12.30;;;7.90;;
47912;SDS011;33676;51.006;17.180;2023-07-13T04:44:20;13.80;;;7.30;;
47912;SDS011;33676;51.006;17.180;2023-07-13T04:46:48;5.50;;;4.80;;
47912;SDS011;33676;51.006;17.180;2023-07-13T04:49:17;10.10;;;5.10;;
47912;SDS011;33676;51.006;17.180;2023-07-13T04:51:45;4.20;;;3.70;;
47912;SDS011;33676;51.006;17.180;2023-07-13T04:54:14;6.80;;;4.20;;
47912;SDS011;33676;51.006;17.180;2023-07-13T04:56:42;4.70;;;4.30;;
47912;SDS011;33676;51.006;17.180;2023-07-13T04:59:11;8.40;;;5.40;;
47912;SDS011;33676;51.006;17.180;2023-07-13T05:01:39;6.70;;;5.20;;
47912;SDS011;33676;51.006;17.180;2023-07-13T05:04:09;9.30;;;5.00;;
47912;SDS011;33676;51.006;17.180;2023-07-13T05:06:37;6.70;;;4.00;;
47912;SDS011;33676;51.006;17.180;2023-07-13T05:09:06;5.10;;;4.70;;
47912;SDS011;33676;51.006;17.180;2023-07-13T05:11:35;5.40;;;4.90;;
47912;SDS011;33676;51.006;17.180;2023-07-13T05:14:04;8.10;;;4.80;;
47912;SDS011;33676;51.006;17.180;2023-07-13T05:16:32;6.10;;;5.40;;
47912;SDS011;33676;51.006;17.180;2023-07-13T05:19:01;5.60;;;5.00;;
47912;SDS011;33676;51.006;17.180;2023-07-13T05:21:31;7.20;;;5.90;;
47912;SDS011;33676;51.006;17.180;2023-07-13T05:24:00;11.90;;;9.70;;
47912;SDS011;33676;51.006;17.180;2023-07-13T05:26:46;8.90;;;5.60;;
47912;SDS011;33676;51.006;17.180;2023-07-13T05:29:15;6.40;;;5.80;;
47912;SDS011;33676;51.006;17.180;2023-07-13T05:33:06;7.10;;;5.80;;
47912;SDS011;33676;51.006;17.180;2023-07-13T05:35:34;5.20;;;4.80;;
47912;SDS011;33676;51.006;17.180;2023-07-13T05:38:03;7.00;;;5.40;;
47912;SDS011;33676;51.006;17.180;2023-07-13T05:40:32;6.00;;;5.10;;
47912;SDS011;33676;51.006;17.180;2023-07-13T05:43:00;5.00;;;4.60;;
47912;SDS011;33676;51.006;17.180;2023-07-13T05:45:32;4.70;;;4.40;;
47912;SDS011;33676;51.006;17.180;2023-07-13T05:48:00;9.70;;;5.20;;
47912;SDS011;33676;51.006;17.180;2023-07-13T05:50:29;6.00;;;5.50;;
47912;SDS011;33676;51.006;17.180;2023-07-13T05:52:57;7.30;;;5.10;;
47912;SDS011;33676;51.006;17.180;2023-07-13T05:55:26;5.70;;;4.90;;
47912;SDS011;33676;51.006;17.180;2023-07-13T05:57:54;12.60;;;4.90;;
47912;SDS011;33676;51.006;17.180;2023-07-13T06:00:24;5.70;;;4.50;;
47912;SDS011;33676;51.006;17.180;2023-07-13T06:02:53;4.70;;;4.30;;
47912;SDS011;33676;51.006;17.180;2023-07-13T06:05:22;4.80;;;4.40;;
47912;SDS011;33676;51.006;17.180;2023-07-13T06:07:50;4.90;;;4.50;;
47912;SDS011;33676;51.006;17.180;2023-07-13T06:10:19;4.40;;;4.00;;
47912;SDS011;33676;51.006;17.180;2023-07-13T06:12:47;4.70;;;4.40;;
47912;SDS011;33676;51.006;17.180;2023-07-13T06:15:16;4.90;;;4.50;;
47912;SDS011;33676;51.006;17.180;2023-07-13T06:17:46;4.40;;;4.10;;
47912;SDS011;33676;51.006;17.180;2023-07-13T06:21:32;3.60;;;3.40;;
47912;SDS011;33676;51.006;17.180;2023-07-13T06:24:00;3.90;;;3.70;;
47912;SDS011;33676;51.006;17.180;2023-07-13T06:26:29;3.80;;;3.40;;
47912;SDS011;33676;51.006;17.180;2023-07-13T06:28:58;3.70;;;3.50;;
47912;SDS011;33676;51.006;17.180;2023-07-13T06:31:26;4.30;;;4.00;;
47912;SDS011;33676;51.006;17.180;2023-07-13T06:33:55;6.10;;;4.50;;
47912;SDS011;33676;51.006;17.180;2023-07-13T06:36:23;4.20;;;3.90;;
47912;SDS011;33676;51.006;17.180;2023-07-13T06:38:52;3.50;;;3.30;;
47912;SDS011;33676;51.006;17.180;2023-07-13T06:41:20;4.50;;;4.10;;
47912;SDS011;33676;51.006;17.180;2023-07-13T06:43:50;3.60;;;3.40;;
47912;SDS011;33676;51.006;17.180;2023-07-13T06:46:21;4.20;;;3.70;;
47912;SDS011;33676;51.006;17.180;2023-07-13T06:48:50;4.10;;;3.80;;
47912;SDS011;33676;51.006;17.180;2023-07-13T06:51:18;3.90;;;3.40;;
47912;SDS011;33676;51.006;17.180;2023-07-13T06:53:47;3.90;;;3.60;;
47912;SDS011;33676;51.006;17.180;2023-07-13T06:56:15;3.00;;;2.80;;
47912;SDS011;33676;51.006;17.180;2023-07-13T06:58:44;3.40;;;3.20;;
47912;SDS011;33676;51.006;17.180;2023-07-13T07:01:12;3.30;;;3.10;;
47912;SDS011;33676;51.006;17.180;2023-07-13T07:03:41;4.20;;;3.90;;
47912;SDS011;33676;51.006;17.180;2023-07-13T07:06:16;6.10;;;3.70;;
47912;SDS011;33676;51.006;17.180;2023-07-13T07:08:47;3.90;;;3.50;;
47912;SDS011;33676;51.006;17.180;2023-07-13T07:11:20;3.80;;;3.50;;
47912;SDS011;33676;51.006;17.180;2023-07-13T07:13:53;5.10;;;4.60;;
47912;SDS011;33676;51.006;17.180;2023-07-13T07:16:22;5.10;;;4.80;;
47912;SDS011;33676;51.006;17.180;2023-07-13T07:18:52;5.50;;;4.80;;
47912;SDS011;33676;51.006;17.180;2023-07-13T07:21:21;6.50;;;6.00;;
47912;SDS011;33676;51.006;17.180;2023-07-13T07:23:52;7.30;;;6.00;;
47912;SDS011;33676;51.006;17.180;2023-07-13T07:26:21;7.30;;;6.60;;
47912;SDS011;33676;51.006;17.180;2023-07-13T07:28:55;7.50;;;6.90;;
47912;SDS011;33676;51.006;17.180;2023-07-13T07:31:43;7.10;;;6.40;;
47912;SDS011;33676;51.006;17.180;2023-07-13T07:34:14;7.60;;;6.90;;
47912;SDS011;33676;51.006;17.180;2023-07-13T07:36:43;9.40;;;7.10;;
47912;SDS011;33676;51.006;17.180;2023-07-13T07:39:14;7.50;;;6.70;;
47912;SDS011;33676;51.006;17.180;2023-07-13T07:41:42;9.40;;;8.50;;
47912;SDS011;33676;51.006;17.180;2023-07-13T07:44:24;10.40;;;7.30;;
47912;SDS011;33676;51.006;17.180;2023-07-13T07:46:53;8.80;;;7.90;;
47912;SDS011;33676;51.006;17.180;2023-07-13T07:49:22;8.20;;;7.40;;
47912;SDS011;33676;51.006;17.180;2023-07-13T07:51:51;5.60;;;5.10;;
47912;SDS011;33676;51.006;17.180;2023-07-13T08:07:40;5.80;;;5.30;;
47912;SDS011;33676;51.006;17.180;2023-07-13T08:10:08;6.50;;;5.90;;
47912;SDS011;33676;51.006;17.180;2023-07-13T08:12:38;6.50;;;6.00;;
47912;SDS011;33676;51.006;17.180;2023-07-13T08:15:13;5.90;;;5.40;;
47912;SDS011;33676;51.006;17.180;2023-07-13T08:17:44;5.90;;;5.20;;
47912;SDS011;33676;51.006;17.180;2023-07-13T08:20:16;5.80;;;5.00;;
47912;SDS011;33676;51.006;17.180;2023-07-13T08:22:46;5.50;;;5.00;;
47912;SDS011;33676;51.006;17.180;2023-07-13T08:25:15;5.40;;;5.00;;
47912;SDS011;33676;51.006;17.180;2023-07-13T08:27:44;4.00;;;3.60;;
47912;SDS011;33676;51.006;17.180;2023-07-13T08:30:12;7.00;;;4.20;;
47912;SDS011;33676;51.006;17.180;2023-07-13T08:32:42;4.30;;;4.10;;
47912;SDS011;33676;51.006;17.180;2023-07-13T08:35:10;4.00;;;3.70;;
47912;SDS011;33676;51.006;17.180;2023-07-13T08:37:39;3.40;;;3.20;;
47912;SDS011;33676;51.006;17.180;2023-07-13T08:40:09;3.90;;;3.60;;
47912;SDS011;33676;51.006;17.180;2023-07-13T08:42:45;4.60;;;4.20;;
47912;SDS011;33676;51.006;17.180;2023-07-13T08:45:30;6.00;;;3.80;;
47912;SDS011;33676;51.006;17.180;2023-07-13T08:48:35;3.10;;;3.00;;
47912;SDS011;33676;51.006;17.180;2023-07-13T08:53:47;4.00;;;3.70;;
47912;SDS011;33676;51.006;17.180;2023-07-13T08:56:20;3.90;;;3.50;;
47912;SDS011;33676;51.006;17.180;2023-07-13T08:58:55;4.20;;;3.00;;
47912;SDS011;33676;51.006;17.180;2023-07-13T09:01:31;3.30;;;3.20;;
47912;SDS011;33676;51.006;17.180;2023-07-13T09:04:19;3.60;;;3.40;;
47912;SDS011;33676;51.006;17.180;2023-07-13T09:09:47;3.30;;;2.90;;
47912;SDS011;33676;51.006;17.180;2023-07-13T09:15:45;2.70;;;2.50;;
47912;SDS011;33676;51.006;17.180;2023-07-13T09:18:36;2.90;;;2.80;;
47912;SDS011;33676;51.006;17.180;2023-07-13T09:21:26;3.50;;;3.30;;
47912;SDS011;33676;51.006;17.180;2023-07-13T09:24:03;4.70;;;3.50;;
47912;SDS011;33676;51.006;17.180;2023-07-13T09:27:27;3.40;;;3.20;;
47912;SDS011;33676;51.006;17.180;2023-07-13T09:30:20;3.40;;;3.20;;
47912;SDS011;33676;51.006;17.180;2023-07-13T09:32:58;2.70;;;2.40;;
47912;SDS011;33676;51.006;17.180;2023-07-13T09:35:28;3.40;;;3.20;;
47912;SDS011;33676;51.006;17.180;2023-07-13T09:38:24;3.70;;;3.50;;
47912;SDS011;33676;51.006;17.180;2023-07-13T09:44:18;4.60;;;3.70;;
47912;SDS011;33676;51.006;17.180;2023-07-13T09:46:59;3.60;;;3.30;;
47912;SDS011;33676;51.006;17.180;2023-07-13T09:49:35;3.60;;;3.40;;
47912;SDS011;33676;51.006;17.180;2023-07-13T09:52:07;3.50;;;3.30;;
47912;SDS011;33676;51.006;17.180;2023-07-13T09:54:48;4.10;;;3.70;;
47912;SDS011;33676;51.006;17.180;2023-07-13T09:57:25;3.40;;;3.20;;
47912;SDS011;33676;51.006;17.180;2023-07-13T10:00:23;4.50;;;3.20;;
47912;SDS011;33676;51.006;17.180;2023-07-13T10:03:19;2.30;;;2.20;;
47912;SDS011;33676;51.006;17.180;2023-07-13T10:05:51;2.70;;;2.50;;
47912;SDS011;33676;51.006;17.180;2023-07-13T10:08:29;2.80;;;2.60;;
47912;SDS011;33676;51.006;17.180;2023-07-13T10:11:26;4.30;;;2.60;;
47912;SDS011;33676;51.006;17.180;2023-07-13T10:13:57;2.30;;;2.20;;
47912;SDS011;33676;51.006;17.180;2023-07-13T10:16:33;4.20;;;3.70;;
47912;SDS011;33676;51.006;17.180;2023-07-13T10:21:58;2.60;;;2.50;;
47912;SDS011;33676;51.006;17.180;2023-07-13T10:24:34;4.80;;;3.40;;
47912;SDS011;33676;51.006;17.180;2023-07-13T10:27:28;2.30;;;2.20;;
47912;SDS011;33676;51.006;17.180;2023-07-13T10:32:37;2.20;;;2.10;;
47912;SDS011;33676;51.006;17.180;2023-07-13T10:35:10;2.70;;;2.50;;
47912;SDS011;33676;51.006;17.180;2023-07-13T10:38:01;2.30;;;2.20;;
47912;SDS011;33676;51.006;17.180;2023-07-13T10:41:01;2.40;;;2.30;;
47912;SDS011;33676;51.006;17.180;2023-07-13T10:43:47;1.90;;;1.80;;
47912;SDS011;33676;51.006;17.180;2023-07-13T10:46:24;2.00;;;1.90;;
47912;SDS011;33676;51.006;17.180;2023-07-13T10:49:01;3.30;;;2.80;;
47912;SDS011;33676;51.006;17.180;2023-07-13T10:51:36;2.40;;;2.20;;
47912;SDS011;33676;51.006;17.180;2023-07-13T10:54:15;2.90;;;2.70;;
47912;SDS011;33676;51.006;17.180;2023-07-13T10:57:06;2.20;;;2.10;;
47912;SDS011;33676;51.006;17.180;2023-07-13T11:00:10;1.70;;;1.60;;
47912;SDS011;33676;51.006;17.180;2023-07-13T11:02:58;3.00;;;2.70;;
47912;SDS011;33676;51.006;17.180;2023-07-13T11:05:32;1.80;;;1.70;;
47912;SDS011;33676;51.006;17.180;2023-07-13T11:14:28;3.70;;;2.20;;
47912;SDS011;33676;51.006;17.180;2023-07-13T11:17:05;1.60;;;1.50;;
47912;SDS011;33676;51.006;17.180;2023-07-13T11:20:19;2.40;;;2.20;;
47912;SDS011;33676;51.006;17.180;2023-07-13T11:25:46;2.40;;;2.30;;
47912;SDS011;33676;51.006;17.180;2023-07-13T11:28:21;1.90;;;1.80;;
47912;SDS011;33676;51.006;17.180;2023-07-13T11:36:19;2.10;;;2.00;;
47912;SDS011;33676;51.006;17.180;2023-07-13T11:39:03;2.20;;;2.00;;
47912;SDS011;33676;51.006;17.180;2023-07-13T11:41:49;5.30;;;2.50;;
47912;SDS011;33676;51.006;17.180;2023-07-13T11:44:22;2.10;;;2.00;;
47912;SDS011;33676;51.006;17.180;2023-07-13T11:46:54;2.50;;;2.30;;
47912;SDS011;33676;51.006;17.180;2023-07-13T11:49:31;2.20;;;2.00;;
47912;SDS011;33676;51.006;17.180;2023-07-13T11:52:01;2.10;;;2.00;;
47912;SDS011;33676;51.006;17.180;2023-07-13T11:54:34;2.90;;;2.30;;
47912;SDS011;33676;51.006;17.180;2023-07-13T11:57:29;2.10;;;2.00;;
47912;SDS011;33676;51.006;17.180;2023-07-13T12:00:11;2.40;;;2.10;;
47912;SDS011;33676;51.006;17.180;2023-07-13T12:02:45;2.60;;;1.70;;
47912;SDS011;33676;51.006;17.180;2023-07-13T12:05:23;2.20;;;1.80;;
47912;SDS011;33676;51.006;17.180;2023-07-13T12:07:54;2.10;;;1.90;;
47912;SDS011;33676;51.006;17.180;2023-07-13T12:10:27;3.20;;;2.80;;
47912;SDS011;33676;51.006;17.180;2023-07-13T12:13:08;2.20;;;1.80;;
47912;SDS011;33676;51.006;17.180;2023-07-13T12:15:39;2.00;;;1.60;;
47912;SDS011;33676;51.006;17.180;2023-07-13T12:18:21;2.30;;;1.50;;
47912;SDS011;33676;51.006;17.180;2023-07-13T12:20:55;2.50;;;2.20;;
47912;SDS011;33676;51.006;17.180;2023-07-13T12:23:31;2.10;;;1.90;;
47912;SDS011;33676;51.006;17.180;2023-07-13T12:26:04;1.90;;;1.80;;
47912;SDS011;33676;51.006;17.180;2023-07-13T12:28:45;2.40;;;2.20;;
47912;SDS011;33676;51.006;17.180;2023-07-13T12:34:09;5.10;;;2.50;;
47912;SDS011;33676;51.006;17.180;2023-07-13T12:41:51;1.90;;;1.80;;
47912;SDS011;33676;51.006;17.180;2023-07-13T12:44:29;2.10;;;1.90;;
47912;SDS011;33676;51.006;17.180;2023-07-13T12:47:04;2.40;;;2.00;;
47912;SDS011;33676;51.006;17.180;2023-07-13T12:49:50;2.80;;;2.30;;
47912;SDS011;33676;51.006;17.180;2023-07-13T12:52:24;3.00;;;2.00;;
47912;SDS011;33676;51.006;17.180;2023-07-13T12:55:22;2.40;;;2.20;;
47912;SDS011;33676;51.006;17.180;2023-07-13T12:57:57;2.90;;;2.30;;
47912;SDS011;33676;51.006;17.180;2023-07-13T13:08:55;2.70;;;1.80;;
47912;SDS011;33676;51.006;17.180;2023-07-13T13:11:28;1.90;;;1.80;;
47912;SDS011;33676;51.006;17.180;2023-07-13T13:13:59;2.30;;;2.10;;
47912;SDS011;33676;51.006;17.180;2023-07-13T13:16:47;1.80;;;1.70;;
47912;SDS011;33676;51.006;17.180;2023-07-13T13:19:24;6.20;;;2.30;;
47912;SDS011;33676;51.006;17.180;2023-07-13T13:21:55;2.00;;;1.80;;
47912;SDS011;33676;51.006;17.180;2023-07-13T13:24:27;1.90;;;1.80;;
47912;SDS011;33676;51.006;17.180;2023-07-13T13:26:56;2.10;;;2.00;;
47912;SDS011;33676;51.006;17.180;2023-07-13T13:29:26;3.40;;;2.20;;
47912;SDS011;33676;51.006;17.180;2023-07-13T13:31:54;1.80;;;1.70;;
47912;SDS011;33676;51.006;17.180;2023-07-13T13:34:24;2.20;;;1.80;;
47912;SDS011;33676;51.006;17.180;2023-07-13T13:36:54;2.50;;;2.10;;
47912;SDS011;33676;51.006;17.180;2023-07-13T13:39:32;1.80;;;1.40;;
47912;SDS011;33676;51.006;17.180;2023-07-13T13:42:03;1.70;;;1.60;;
47912;SDS011;33676;51.006;17.180;2023-07-13T13:44:33;3.20;;;2.00;;
47912;SDS011;33676;51.006;17.180;2023-07-13T13:47:01;1.90;;;1.50;;
47912;SDS011;33676;51.006;17.180;2023-07-13T13:49:30;1.70;;;1.50;;
47912;SDS011;33676;51.006;17.180;2023-07-13T13:51:58;1.60;;;1.50;;
47912;SDS011;33676;51.006;17.180;2023-07-13T13:54:27;3.00;;;1.70;;
47912;SDS011;33676;51.006;17.180;2023-07-13T13:56:56;1.40;;;1.30;;
47912;SDS011;33676;51.006;17.180;2023-07-13T13:59:27;1.70;;;1.60;;
47912;SDS011;33676;51.006;17.180;2023-07-13T14:01:56;2.40;;;1.70;;
47912;SDS011;33676;51.006;17.180;2023-07-13T14:04:28;1.70;;;1.60;;
47912;SDS011;33676;51.006;17.180;2023-07-13T14:06:56;2.90;;;1.80;;
47912;SDS011;33676;51.006;17.180;2023-07-13T14:09:25;2.30;;;1.40;;
47912;SDS011;33676;51.006;17.180;2023-07-13T14:11:54;1.70;;;1.50;;
47912;SDS011;33676;51.006;17.180;2023-07-13T14:14:23;1.70;;;1.40;;
47912;SDS011;33676;51.006;17.180;2023-07-13T14:16:55;1.40;;;1.30;;
47912;SDS011;33676;51.006;17.180;2023-07-13T14:19:25;1.70;;;1.50;;
47912;SDS011;33676;51.006;17.180;2023-07-13T14:21:55;3.70;;;2.10;;
47912;SDS011;33676;51.006;17.180;2023-07-13T14:24:24;1.30;;;1.20;;
47912;SDS011;33676;51.006;17.180;2023-07-13T14:26:53;1.40;;;1.40;;
47912;SDS011;33676;51.006;17.180;2023-07-13T14:29:21;1.80;;;1.70;;
47912;SDS011;33676;51.006;17.180;2023-07-13T14:31:52;1.90;;;1.80;;
47912;SDS011;33676;51.006;17.180;2023-07-13T14:34:21;1.60;;;1.60;;
47912;SDS011;33676;51.006;17.180;2023-07-13T14:36:51;2.50;;;1.60;;
47912;SDS011;33676;51.006;17.180;2023-07-13T14:39:22;1.30;;;1.20;;
47912;SDS011;33676;51.006;17.180;2023-07-13T14:41:54;1.30;;;1.30;;
47912;SDS011;33676;51.006;17.180;2023-07-13T14:44:25;1.30;;;1.20;;
47912;SDS011;33676;51.006;17.180;2023-07-13T14:46:58;2.30;;;1.50;;
47912;SDS011;33676;51.006;17.180;2023-07-13T14:49:31;1.50;;;1.40;;
47912;SDS011;33676;51.006;17.180;2023-07-13T14:52:18;1.40;;;1.40;;
47912;SDS011;33676;51.006;17.180;2023-07-13T14:54:51;2.00;;;1.90;;
47912;SDS011;33676;51.006;17.180;2023-07-13T14:57:22;2.40;;;1.70;;
47912;SDS011;33676;51.006;17.180;2023-07-13T14:59:53;1.80;;;1.30;;
47912;SDS011;33676;51.006;17.180;2023-07-13T15:02:31;1.60;;;1.60;;
47912;SDS011;33676;51.006;17.180;2023-07-13T15:05:11;2.00;;;1.90;;
47912;SDS011;33676;51.006;17.180;2023-07-13T15:07:53;1.70;;;1.60;;
47912;SDS011;33676;51.006;17.180;2023-07-13T15:10:25;1.60;;;1.50;;
47912;SDS011;33676;51.006;17.180;2023-07-13T15:15:46;1.50;;;1.50;;
47912;SDS011;33676;51.006;17.180;2023-07-13T15:18:17;1.40;;;1.40;;
47912;SDS011;33676;51.006;17.180;2023-07-13T15:20:50;2.00;;;1.90;;
47912;SDS011;33676;51.006;17.180;2023-07-13T15:23:20;2.10;;;1.60;;
47912;SDS011;33676;51.006;17.180;2023-07-13T15:25:50;1.40;;;1.40;;
47912;SDS011;33676;51.006;17.180;2023-07-13T15:28:19;1.70;;;1.60;;
47912;SDS011;33676;51.006;17.180;2023-07-13T15:30:48;1.70;;;1.70;;
47912;SDS011;33676;51.006;17.180;2023-07-13T15:33:22;1.80;;;1.70;;
47912;SDS011;33676;51.006;17.180;2023-07-13T15:35:55;1.80;;;1.50;;
47912;SDS011;33676;51.006;17.180;2023-07-13T15:38:29;5.90;;;1.60;;
47912;SDS011;33676;51.006;17.180;2023-07-13T15:40:59;1.90;;;1.80;;
47912;SDS011;33676;51.006;17.180;2023-07-13T15:43:28;1.50;;;1.50;;
47912;SDS011;33676;51.006;17.180;2023-07-13T15:46:01;1.50;;;1.50;;
47912;SDS011;33676;51.006;17.180;2023-07-13T15:48:29;1.50;;;1.40;;
47912;SDS011;33676;51.006;17.180;2023-07-13T15:51:03;1.70;;;1.60;;
47912;SDS011;33676;51.006;17.180;2023-07-13T15:53:34;1.70;;;1.60;;
47912;SDS011;33676;51.006;17.180;2023-07-13T15:56:21;2.90;;;1.70;;
47912;SDS011;33676;51.006;17.180;2023-07-13T15:58:52;6.70;;;6.30;;
47912;SDS011;33676;51.006;17.180;2023-07-13T16:01:23;1.60;;;1.50;;
47912;SDS011;33676;51.006;17.180;2023-07-13T16:03:52;4.80;;;2.10;;
47912;SDS011;33676;51.006;17.180;2023-07-13T16:06:39;1.70;;;1.60;;
47912;SDS011;33676;51.006;17.180;2023-07-13T16:09:19;2.20;;;2.10;;
47912;SDS011;33676;51.006;17.180;2023-07-13T16:11:50;2.20;;;2.10;;
47912;SDS011;33676;51.006;17.180;2023-07-13T16:14:20;2.00;;;1.90;;